sensor_id;sensor_type;location;lat;lon;timestamp;P1;durP1;ratioP1;P2;durP2;ratioP2
12218;SDS011;6172;42.646;23.344;2023-02-24T00:00:25;11.30;;;6.77;;
12218;SDS011;6172;42.646;23.344;2023-02-24T00:03:02;10.27;;;5.63;;
12218;SDS011;6172;42.646;23.344;2023-02-24T00:05:33;11.13;;;6.53;;
12218;SDS011;6172;42.646;23.344;2023-02-24T00:08:01;11.67;;;6.47;;
12218;SDS011;6172;42.646;23.344;2023-02-24T00:10:27;12.50;;;6.00;;
12218;SDS011;6172;42.646;23.344;2023-02-24T00:12:55;10.10;;;5.73;;
12218;SDS011;6172;42.646;23.344;2023-02-24T00:15:21;12.63;;;6.03;;
12218;SDS011;6172;42.646;23.344;2023-02-24T00:17:48;12.27;;;5.90;;
12218;SDS011;6172;42.646;23.344;2023-02-24T00:20:15;11.80;;;5.67;;
12218;SDS011;6172;42.646;23.344;2023-02-24T00:22:44;11.47;;;6.47;;
12218;SDS011;6172;42.646;23.344;2023-02-24T00:25:11;11.97;;;5.67;;
12218;SDS011;6172;42.646;23.344;2023-02-24T00:27:39;13.43;;;6.00;;
12218;SDS011;6172;42.646;23.344;2023-02-24T00:30:07;12.47;;;7.13;;
12218;SDS011;6172;42.646;23.344;2023-02-24T00:32:35;9.87;;;6.40;;
12218;SDS011;6172;42.646;23.344;2023-02-24T00:35:02;10.83;;;5.83;;
12218;SDS011;6172;42.646;23.344;2023-02-24T00:37:29;11.37;;;5.40;;
12218;SDS011;6172;42.646;23.344;2023-02-24T00:39:58;12.17;;;5.97;;
12218;SDS011;6172;42.646;23.344;2023-02-24T00:42:25;12.23;;;5.63;;
12218;SDS011;6172;42.646;23.344;2023-02-24T00:44:52;12.50;;;5.50;;
12218;SDS011;6172;42.646;23.344;2023-02-24T00:47:19;9.77;;;5.47;;
12218;SDS011;6172;42.646;23.344;2023-02-24T00:49:47;13.20;;;5.97;;
12218;SDS011;6172;42.646;23.344;2023-02-24T00:52:15;7.47;;;4.70;;
12218;SDS011;6172;42.646;23.344;2023-02-24T00:54:44;11.50;;;6.03;;
12218;SDS011;6172;42.646;23.344;2023-02-24T00:57:13;11.23;;;5.93;;
12218;SDS011;6172;42.646;23.344;2023-02-24T00:59:42;8.13;;;4.80;;
12218;SDS011;6172;42.646;23.344;2023-02-24T01:02:11;8.93;;;5.37;;
12218;SDS011;6172;42.646;23.344;2023-02-24T01:04:38;8.60;;;4.33;;
12218;SDS011;6172;42.646;23.344;2023-02-24T01:07:05;8.37;;;5.07;;
12218;SDS011;6172;42.646;23.344;2023-02-24T01:09:34;6.93;;;4.67;;
12218;SDS011;6172;42.646;23.344;2023-02-24T01:12:03;8.53;;;4.83;;
12218;SDS011;6172;42.646;23.344;2023-02-24T01:14:59;7.27;;;4.90;;
12218;SDS011;6172;42.646;23.344;2023-02-24T01:17:29;7.33;;;4.43;;
12218;SDS011;6172;42.646;23.344;2023-02-24T01:19:56;5.83;;;4.00;;
12218;SDS011;6172;42.646;23.344;2023-02-24T01:22:24;8.00;;;5.33;;
12218;SDS011;6172;42.646;23.344;2023-02-24T01:24:52;9.00;;;4.63;;
12218;SDS011;6172;42.646;23.344;2023-02-24T01:27:18;9.40;;;5.33;;
12218;SDS011;6172;42.646;23.344;2023-02-24T01:29:45;8.10;;;4.87;;
12218;SDS011;6172;42.646;23.344;2023-02-24T01:32:15;7.83;;;4.50;;
12218;SDS011;6172;42.646;23.344;2023-02-24T01:34:43;8.50;;;4.77;;
12218;SDS011;6172;42.646;23.344;2023-02-24T01:37:11;7.50;;;3.83;;
12218;SDS011;6172;42.646;23.344;2023-02-24T01:39:40;9.67;;;4.63;;
12218;SDS011;6172;42.646;23.344;2023-02-24T01:42:09;8.10;;;4.30;;
12218;SDS011;6172;42.646;23.344;2023-02-24T01:47:38;7.67;;;4.60;;
12218;SDS011;6172;42.646;23.344;2023-02-24T01:50:07;9.27;;;4.63;;
12218;SDS011;6172;42.646;23.344;2023-02-24T01:52:39;10.43;;;4.70;;
12218;SDS011;6172;42.646;23.344;2023-02-24T01:55:11;7.10;;;3.63;;
12218;SDS011;6172;42.646;23.344;2023-02-24T01:57:44;8.47;;;4.17;;
12218;SDS011;6172;42.646;23.344;2023-02-24T02:00:12;8.00;;;4.27;;
12218;SDS011;6172;42.646;23.344;2023-02-24T02:02:58;6.33;;;3.07;;
12218;SDS011;6172;42.646;23.344;2023-02-24T02:05:27;8.57;;;4.43;;
12218;SDS011;6172;42.646;23.344;2023-02-24T02:07:54;8.03;;;4.67;;
12218;SDS011;6172;42.646;23.344;2023-02-24T02:10:22;8.70;;;4.23;;
12218;SDS011;6172;42.646;23.344;2023-02-24T02:12:50;7.23;;;4.47;;
12218;SDS011;6172;42.646;23.344;2023-02-24T02:15:18;6.47;;;3.87;;
12218;SDS011;6172;42.646;23.344;2023-02-24T02:17:48;9.83;;;4.53;;
12218;SDS011;6172;42.646;23.344;2023-02-24T02:23:40;7.97;;;4.27;;
12218;SDS011;6172;42.646;23.344;2023-02-24T02:26:30;8.03;;;4.70;;
12218;SDS011;6172;42.646;23.344;2023-02-24T02:29:25;10.53;;;4.50;;
12218;SDS011;6172;42.646;23.344;2023-02-24T02:35:21;8.17;;;5.03;;
12218;SDS011;6172;42.646;23.344;2023-02-24T02:37:55;6.67;;;4.60;;
12218;SDS011;6172;42.646;23.344;2023-02-24T02:40:34;8.67;;;5.33;;
12218;SDS011;6172;42.646;23.344;2023-02-24T02:43:13;8.73;;;4.77;;
12218;SDS011;6172;42.646;23.344;2023-02-24T02:45:44;8.20;;;4.90;;
12218;SDS011;6172;42.646;23.344;2023-02-24T02:48:21;8.50;;;4.57;;
12218;SDS011;6172;42.646;23.344;2023-02-24T02:50:55;8.23;;;4.13;;
12218;SDS011;6172;42.646;23.344;2023-02-24T02:53:30;8.10;;;4.17;;
12218;SDS011;6172;42.646;23.344;2023-02-24T02:56:05;8.13;;;4.87;;
12218;SDS011;6172;42.646;23.344;2023-02-24T02:58:37;9.30;;;4.60;;
12218;SDS011;6172;42.646;23.344;2023-02-24T03:01:08;7.80;;;3.90;;
12218;SDS011;6172;42.646;23.344;2023-02-24T03:03:37;5.33;;;3.47;;
12218;SDS011;6172;42.646;23.344;2023-02-24T03:06:10;6.97;;;4.37;;
12218;SDS011;6172;42.646;23.344;2023-02-24T03:08:44;8.80;;;4.40;;
12218;SDS011;6172;42.646;23.344;2023-02-24T03:11:17;7.63;;;4.20;;
12218;SDS011;6172;42.646;23.344;2023-02-24T03:13:47;7.47;;;3.73;;
12218;SDS011;6172;42.646;23.344;2023-02-24T03:16:16;6.37;;;4.13;;
12218;SDS011;6172;42.646;23.344;2023-02-24T03:18:46;7.33;;;3.87;;
12218;SDS011;6172;42.646;23.344;2023-02-24T03:21:22;7.57;;;3.73;;
12218;SDS011;6172;42.646;23.344;2023-02-24T03:23:53;7.50;;;4.50;;
12218;SDS011;6172;42.646;23.344;2023-02-24T03:26:21;6.83;;;4.00;;
12218;SDS011;6172;42.646;23.344;2023-02-24T03:28:55;8.30;;;4.50;;
12218;SDS011;6172;42.646;23.344;2023-02-24T03:31:29;8.13;;;4.33;;
12218;SDS011;6172;42.646;23.344;2023-02-24T03:34:00;6.43;;;3.47;;
12218;SDS011;6172;42.646;23.344;2023-02-24T03:36:32;4.63;;;2.80;;
12218;SDS011;6172;42.646;23.344;2023-02-24T03:38:59;7.33;;;4.00;;
12218;SDS011;6172;42.646;23.344;2023-02-24T03:41:30;4.97;;;2.93;;
12218;SDS011;6172;42.646;23.344;2023-02-24T03:44:02;6.40;;;2.70;;
12218;SDS011;6172;42.646;23.344;2023-02-24T03:46:33;4.63;;;2.87;;
12218;SDS011;6172;42.646;23.344;2023-02-24T03:49:02;4.70;;;2.20;;
12218;SDS011;6172;42.646;23.344;2023-02-24T03:51:38;4.83;;;2.30;;
12218;SDS011;6172;42.646;23.344;2023-02-24T03:54:11;4.43;;;2.50;;
12218;SDS011;6172;42.646;23.344;2023-02-24T03:56:48;5.03;;;1.90;;
12218;SDS011;6172;42.646;23.344;2023-02-24T03:59:28;5.20;;;2.57;;
12218;SDS011;6172;42.646;23.344;2023-02-24T04:02:07;3.33;;;2.20;;
12218;SDS011;6172;42.646;23.344;2023-02-24T04:04:43;4.27;;;2.27;;
12218;SDS011;6172;42.646;23.344;2023-02-24T04:07:16;4.43;;;2.40;;
12218;SDS011;6172;42.646;23.344;2023-02-24T04:09:55;4.70;;;2.00;;
12218;SDS011;6172;42.646;23.344;2023-02-24T04:12:34;4.50;;;2.03;;
12218;SDS011;6172;42.646;23.344;2023-02-24T04:15:12;3.60;;;1.90;;
12218;SDS011;6172;42.646;23.344;2023-02-24T04:17:46;5.30;;;2.13;;
12218;SDS011;6172;42.646;23.344;2023-02-24T04:20:16;4.87;;;1.90;;
12218;SDS011;6172;42.646;23.344;2023-02-24T04:22:48;5.10;;;2.63;;
12218;SDS011;6172;42.646;23.344;2023-02-24T04:25:19;4.73;;;2.20;;
12218;SDS011;6172;42.646;23.344;2023-02-24T04:27:49;3.93;;;2.00;;
12218;SDS011;6172;42.646;23.344;2023-02-24T04:30:18;3.80;;;2.27;;
12218;SDS011;6172;42.646;23.344;2023-02-24T04:32:48;4.37;;;2.13;;
12218;SDS011;6172;42.646;23.344;2023-02-24T04:35:17;4.77;;;1.93;;
12218;SDS011;6172;42.646;23.344;2023-02-24T04:37:48;5.20;;;2.13;;
12218;SDS011;6172;42.646;23.344;2023-02-24T04:40:17;3.23;;;1.97;;
12218;SDS011;6172;42.646;23.344;2023-02-24T04:42:46;3.27;;;2.13;;
12218;SDS011;6172;42.646;23.344;2023-02-24T04:45:14;2.50;;;1.73;;
12218;SDS011;6172;42.646;23.344;2023-02-24T04:47:43;3.33;;;1.67;;
12218;SDS011;6172;42.646;23.344;2023-02-24T04:50:14;3.63;;;1.93;;
12218;SDS011;6172;42.646;23.344;2023-02-24T04:52:49;4.10;;;2.10;;
12218;SDS011;6172;42.646;23.344;2023-02-24T04:55:17;5.97;;;3.17;;
12218;SDS011;6172;42.646;23.344;2023-02-24T04:57:46;5.00;;;1.90;;
12218;SDS011;6172;42.646;23.344;2023-02-24T05:00:14;3.87;;;1.90;;
12218;SDS011;6172;42.646;23.344;2023-02-24T05:02:46;4.83;;;2.23;;
12218;SDS011;6172;42.646;23.344;2023-02-24T05:05:14;3.87;;;2.50;;
12218;SDS011;6172;42.646;23.344;2023-02-24T05:07:42;3.80;;;1.60;;
12218;SDS011;6172;42.646;23.344;2023-02-24T05:10:13;2.23;;;1.43;;
12218;SDS011;6172;42.646;23.344;2023-02-24T05:12:43;2.87;;;1.57;;
12218;SDS011;6172;42.646;23.344;2023-02-24T05:15:10;2.53;;;1.60;;
12218;SDS011;6172;42.646;23.344;2023-02-24T05:17:37;3.63;;;2.00;;
12218;SDS011;6172;42.646;23.344;2023-02-24T05:20:05;3.70;;;1.80;;
12218;SDS011;6172;42.646;23.344;2023-02-24T05:22:51;4.47;;;1.73;;
12218;SDS011;6172;42.646;23.344;2023-02-24T05:25:19;2.93;;;1.70;;
12218;SDS011;6172;42.646;23.344;2023-02-24T05:27:49;3.50;;;1.73;;
12218;SDS011;6172;42.646;23.344;2023-02-24T05:30:16;3.57;;;1.80;;
12218;SDS011;6172;42.646;23.344;2023-02-24T05:32:43;3.87;;;2.00;;
12218;SDS011;6172;42.646;23.344;2023-02-24T05:35:10;4.00;;;1.67;;
12218;SDS011;6172;42.646;23.344;2023-02-24T05:37:38;4.13;;;2.07;;
12218;SDS011;6172;42.646;23.344;2023-02-24T05:40:08;4.10;;;2.17;;
12218;SDS011;6172;42.646;23.344;2023-02-24T05:42:40;2.27;;;1.70;;
12218;SDS011;6172;42.646;23.344;2023-02-24T05:45:09;3.47;;;2.43;;
12218;SDS011;6172;42.646;23.344;2023-02-24T05:47:37;3.77;;;2.07;;
12218;SDS011;6172;42.646;23.344;2023-02-24T05:50:04;2.90;;;1.70;;
12218;SDS011;6172;42.646;23.344;2023-02-24T05:52:33;5.60;;;2.43;;
12218;SDS011;6172;42.646;23.344;2023-02-24T05:55:02;4.30;;;1.90;;
12218;SDS011;6172;42.646;23.344;2023-02-24T05:57:31;4.80;;;2.27;;
12218;SDS011;6172;42.646;23.344;2023-02-24T06:00:01;2.60;;;1.87;;
12218;SDS011;6172;42.646;23.344;2023-02-24T06:02:38;3.13;;;1.93;;
12218;SDS011;6172;42.646;23.344;2023-02-24T06:05:11;2.80;;;1.87;;
12218;SDS011;6172;42.646;23.344;2023-02-24T06:07:49;4.53;;;2.70;;
12218;SDS011;6172;42.646;23.344;2023-02-24T06:10:26;5.67;;;2.33;;
12218;SDS011;6172;42.646;23.344;2023-02-24T06:12:55;9.27;;;3.80;;
12218;SDS011;6172;42.646;23.344;2023-02-24T06:15:24;5.40;;;2.70;;
12218;SDS011;6172;42.646;23.344;2023-02-24T06:17:50;4.83;;;2.90;;
12218;SDS011;6172;42.646;23.344;2023-02-24T06:20:20;5.33;;;2.73;;
12218;SDS011;6172;42.646;23.344;2023-02-24T06:22:48;7.57;;;3.03;;
12218;SDS011;6172;42.646;23.344;2023-02-24T06:25:18;9.10;;;3.50;;
12218;SDS011;6172;42.646;23.344;2023-02-24T06:27:49;7.67;;;3.77;;
12218;SDS011;6172;42.646;23.344;2023-02-24T06:30:19;5.37;;;3.23;;
12218;SDS011;6172;42.646;23.344;2023-02-24T06:32:51;6.07;;;3.40;;
12218;SDS011;6172;42.646;23.344;2023-02-24T06:35:18;8.20;;;3.90;;
12218;SDS011;6172;42.646;23.344;2023-02-24T06:37:48;6.73;;;4.13;;
12218;SDS011;6172;42.646;23.344;2023-02-24T06:40:15;6.83;;;3.57;;
12218;SDS011;6172;42.646;23.344;2023-02-24T06:42:45;9.77;;;4.33;;
12218;SDS011;6172;42.646;23.344;2023-02-24T06:45:13;9.23;;;4.13;;
12218;SDS011;6172;42.646;23.344;2023-02-24T06:47:42;8.47;;;4.33;;
12218;SDS011;6172;42.646;23.344;2023-02-24T06:50:14;12.10;;;5.90;;
12218;SDS011;6172;42.646;23.344;2023-02-24T06:52:44;13.77;;;5.60;;
12218;SDS011;6172;42.646;23.344;2023-02-24T06:55:11;19.53;;;5.70;;
12218;SDS011;6172;42.646;23.344;2023-02-24T06:57:50;17.80;;;5.80;;
12218;SDS011;6172;42.646;23.344;2023-02-24T07:00:25;14.17;;;6.87;;
12218;SDS011;6172;42.646;23.344;2023-02-24T07:03:02;11.50;;;5.70;;
12218;SDS011;6172;42.646;23.344;2023-02-24T07:05:41;12.27;;;5.20;;
12218;SDS011;6172;42.646;23.344;2023-02-24T07:08:14;18.17;;;6.07;;
12218;SDS011;6172;42.646;23.344;2023-02-24T07:10:42;13.73;;;6.00;;
12218;SDS011;6172;42.646;23.344;2023-02-24T07:13:09;16.60;;;6.57;;
12218;SDS011;6172;42.646;23.344;2023-02-24T07:15:37;11.87;;;6.67;;
12218;SDS011;6172;42.646;23.344;2023-02-24T07:18:04;12.80;;;6.37;;
12218;SDS011;6172;42.646;23.344;2023-02-24T07:20:38;11.90;;;5.63;;
12218;SDS011;6172;42.646;23.344;2023-02-24T07:23:12;14.80;;;6.60;;
12218;SDS011;6172;42.646;23.344;2023-02-24T07:25:39;13.50;;;6.20;;
12218;SDS011;6172;42.646;23.344;2023-02-24T07:28:10;17.37;;;7.27;;
12218;SDS011;6172;42.646;23.344;2023-02-24T07:30:37;22.00;;;7.37;;
12218;SDS011;6172;42.646;23.344;2023-02-24T07:33:06;11.43;;;5.70;;
12218;SDS011;6172;42.646;23.344;2023-02-24T07:35:34;12.17;;;5.70;;
12218;SDS011;6172;42.646;23.344;2023-02-24T07:38:02;14.20;;;5.50;;
12218;SDS011;6172;42.646;23.344;2023-02-24T07:40:31;8.97;;;5.07;;
12218;SDS011;6172;42.646;23.344;2023-02-24T07:43:00;13.97;;;6.10;;
12218;SDS011;6172;42.646;23.344;2023-02-24T07:45:27;12.83;;;5.37;;
12218;SDS011;6172;42.646;23.344;2023-02-24T07:47:54;8.73;;;5.00;;
12218;SDS011;6172;42.646;23.344;2023-02-24T07:50:25;12.63;;;5.20;;
12218;SDS011;6172;42.646;23.344;2023-02-24T07:52:56;7.00;;;4.47;;
12218;SDS011;6172;42.646;23.344;2023-02-24T07:55:23;13.33;;;5.40;;
12218;SDS011;6172;42.646;23.344;2023-02-24T07:57:56;14.47;;;5.27;;
12218;SDS011;6172;42.646;23.344;2023-02-24T08:00:25;9.97;;;5.03;;
12218;SDS011;6172;42.646;23.344;2023-02-24T08:02:53;7.80;;;4.77;;
12218;SDS011;6172;42.646;23.344;2023-02-24T08:05:21;10.97;;;5.50;;
12218;SDS011;6172;42.646;23.344;2023-02-24T08:07:49;11.43;;;4.87;;
12218;SDS011;6172;42.646;23.344;2023-02-24T08:10:16;7.90;;;4.80;;
12218;SDS011;6172;42.646;23.344;2023-02-24T08:12:50;13.70;;;5.90;;
12218;SDS011;6172;42.646;23.344;2023-02-24T08:15:23;11.53;;;5.43;;
12218;SDS011;6172;42.646;23.344;2023-02-24T08:17:58;10.73;;;5.03;;
12218;SDS011;6172;42.646;23.344;2023-02-24T08:20:26;11.13;;;5.83;;
12218;SDS011;6172;42.646;23.344;2023-02-24T08:23:00;12.80;;;5.40;;
12218;SDS011;6172;42.646;23.344;2023-02-24T08:25:30;12.90;;;5.97;;
12218;SDS011;6172;42.646;23.344;2023-02-24T08:28:00;10.83;;;5.87;;
12218;SDS011;6172;42.646;23.344;2023-02-24T08:30:32;11.60;;;5.37;;
12218;SDS011;6172;42.646;23.344;2023-02-24T08:33:03;9.70;;;5.30;;
12218;SDS011;6172;42.646;23.344;2023-02-24T08:35:32;10.63;;;5.30;;
12218;SDS011;6172;42.646;23.344;2023-02-24T08:38:02;13.83;;;6.10;;
12218;SDS011;6172;42.646;23.344;2023-02-24T08:40:39;10.03;;;4.87;;
12218;SDS011;6172;42.646;23.344;2023-02-24T08:43:15;13.77;;;6.00;;
12218;SDS011;6172;42.646;23.344;2023-02-24T08:46:02;10.40;;;5.40;;
12218;SDS011;6172;42.646;23.344;2023-02-24T08:48:38;11.00;;;5.07;;
12218;SDS011;6172;42.646;23.344;2023-02-24T08:51:08;11.93;;;5.90;;
12218;SDS011;6172;42.646;23.344;2023-02-24T08:53:39;14.10;;;5.53;;
12218;SDS011;6172;42.646;23.344;2023-02-24T08:56:07;11.57;;;5.53;;
12218;SDS011;6172;42.646;23.344;2023-02-24T08:58:36;9.77;;;5.37;;
12218;SDS011;6172;42.646;23.344;2023-02-24T09:01:12;16.03;;;6.77;;
12218;SDS011;6172;42.646;23.344;2023-02-24T09:03:48;15.40;;;5.70;;
12218;SDS011;6172;42.646;23.344;2023-02-24T09:06:17;14.10;;;6.90;;
12218;SDS011;6172;42.646;23.344;2023-02-24T09:08:50;15.37;;;6.83;;
12218;SDS011;6172;42.646;23.344;2023-02-24T09:11:39;11.57;;;6.37;;
12218;SDS011;6172;42.646;23.344;2023-02-24T09:14:09;13.90;;;5.90;;
12218;SDS011;6172;42.646;23.344;2023-02-24T09:16:44;12.40;;;6.23;;
12218;SDS011;6172;42.646;23.344;2023-02-24T09:19:25;11.80;;;5.53;;
12218;SDS011;6172;42.646;23.344;2023-02-24T09:22:26;12.27;;;5.87;;
12218;SDS011;6172;42.646;23.344;2023-02-24T09:24:56;16.03;;;6.60;;
12218;SDS011;6172;42.646;23.344;2023-02-24T09:27:38;13.60;;;6.00;;
12218;SDS011;6172;42.646;23.344;2023-02-24T09:30:07;10.60;;;5.47;;
12218;SDS011;6172;42.646;23.344;2023-02-24T09:32:57;13.43;;;6.67;;
12218;SDS011;6172;42.646;23.344;2023-02-24T09:35:27;12.20;;;6.30;;
12218;SDS011;6172;42.646;23.344;2023-02-24T09:38:00;15.53;;;6.60;;
12218;SDS011;6172;42.646;23.344;2023-02-24T09:40:31;13.97;;;6.47;;
12218;SDS011;6172;42.646;23.344;2023-02-24T09:43:13;20.63;;;7.43;;
12218;SDS011;6172;42.646;23.344;2023-02-24T09:45:45;11.37;;;6.10;;
12218;SDS011;6172;42.646;23.344;2023-02-24T09:48:23;12.87;;;5.80;;
12218;SDS011;6172;42.646;23.344;2023-02-24T09:51:08;11.37;;;6.60;;
12218;SDS011;6172;42.646;23.344;2023-02-24T09:53:45;15.53;;;7.33;;
12218;SDS011;6172;42.646;23.344;2023-02-24T09:56:17;15.10;;;6.40;;
12218;SDS011;6172;42.646;23.344;2023-02-24T09:58:51;12.13;;;5.93;;
12218;SDS011;6172;42.646;23.344;2023-02-24T10:01:36;13.73;;;5.87;;
12218;SDS011;6172;42.646;23.344;2023-02-24T10:04:23;10.87;;;5.80;;
12218;SDS011;6172;42.646;23.344;2023-02-24T10:07:06;14.13;;;6.30;;
12218;SDS011;6172;42.646;23.344;2023-02-24T10:09:40;9.43;;;6.00;;
12218;SDS011;6172;42.646;23.344;2023-02-24T10:12:13;16.67;;;7.07;;
12218;SDS011;6172;42.646;23.344;2023-02-24T10:14:45;11.73;;;6.60;;
12218;SDS011;6172;42.646;23.344;2023-02-24T10:17:17;10.37;;;6.63;;
12218;SDS011;6172;42.646;23.344;2023-02-24T10:19:58;12.77;;;6.93;;
12218;SDS011;6172;42.646;23.344;2023-02-24T10:22:39;13.33;;;7.17;;
12218;SDS011;6172;42.646;23.344;2023-02-24T10:28:11;9.90;;;5.83;;
12218;SDS011;6172;42.646;23.344;2023-02-24T10:30:51;10.93;;;6.07;;
12218;SDS011;6172;42.646;23.344;2023-02-24T10:33:34;13.47;;;6.30;;
12218;SDS011;6172;42.646;23.344;2023-02-24T10:36:12;12.57;;;6.17;;
12218;SDS011;6172;42.646;23.344;2023-02-24T10:38:42;12.20;;;6.23;;
12218;SDS011;6172;42.646;23.344;2023-02-24T10:41:17;12.77;;;6.80;;
12218;SDS011;6172;42.646;23.344;2023-02-24T10:43:51;12.13;;;6.77;;
12218;SDS011;6172;42.646;23.344;2023-02-24T10:46:21;11.70;;;6.83;;
12218;SDS011;6172;42.646;23.344;2023-02-24T10:48:52;12.37;;;6.07;;
12218;SDS011;6172;42.646;23.344;2023-02-24T10:51:27;18.03;;;6.93;;
12218;SDS011;6172;42.646;23.344;2023-02-24T10:54:08;14.87;;;7.40;;
12218;SDS011;6172;42.646;23.344;2023-02-24T10:57:07;13.90;;;6.70;;
12218;SDS011;6172;42.646;23.344;2023-02-24T10:59:46;13.70;;;6.83;;
12218;SDS011;6172;42.646;23.344;2023-02-24T11:02:34;14.87;;;7.10;;
12218;SDS011;6172;42.646;23.344;2023-02-24T11:05:20;12.23;;;6.57;;
12218;SDS011;6172;42.646;23.344;2023-02-24T11:11:00;31.10;;;10.03;;
12218;SDS011;6172;42.646;23.344;2023-02-24T11:13:33;14.77;;;7.80;;
12218;SDS011;6172;42.646;23.344;2023-02-24T11:16:19;16.10;;;7.10;;
12218;SDS011;6172;42.646;23.344;2023-02-24T11:19:04;22.50;;;8.90;;
12218;SDS011;6172;42.646;23.344;2023-02-24T11:21:32;13.63;;;7.03;;
12218;SDS011;6172;42.646;23.344;2023-02-24T11:24:01;13.50;;;7.50;;
12218;SDS011;6172;42.646;23.344;2023-02-24T11:26:32;17.77;;;7.50;;
12218;SDS011;6172;42.646;23.344;2023-02-24T11:29:13;12.13;;;7.27;;
12218;SDS011;6172;42.646;23.344;2023-02-24T11:34:49;12.13;;;7.33;;
12218;SDS011;6172;42.646;23.344;2023-02-24T11:37:28;13.47;;;7.20;;
12218;SDS011;6172;42.646;23.344;2023-02-24T11:40:04;10.37;;;6.67;;
12218;SDS011;6172;42.646;23.344;2023-02-24T11:42:38;12.23;;;7.43;;
12218;SDS011;6172;42.646;23.344;2023-02-24T11:45:11;14.20;;;8.47;;
12218;SDS011;6172;42.646;23.344;2023-02-24T11:47:51;14.23;;;6.97;;
12218;SDS011;6172;42.646;23.344;2023-02-24T11:50:30;13.20;;;7.17;;
12218;SDS011;6172;42.646;23.344;2023-02-24T11:53:12;11.13;;;6.80;;
12218;SDS011;6172;42.646;23.344;2023-02-24T11:55:46;12.50;;;6.97;;
12218;SDS011;6172;42.646;23.344;2023-02-24T11:58:19;14.23;;;7.83;;
12218;SDS011;6172;42.646;23.344;2023-02-24T12:00:51;12.10;;;7.27;;
12218;SDS011;6172;42.646;23.344;2023-02-24T12:03:27;16.50;;;7.93;;
12218;SDS011;6172;42.646;23.344;2023-02-24T12:06:02;15.70;;;8.00;;
12218;SDS011;6172;42.646;23.344;2023-02-24T12:08:38;9.67;;;6.70;;
12218;SDS011;6172;42.646;23.344;2023-02-24T12:11:10;10.47;;;6.50;;
12218;SDS011;6172;42.646;23.344;2023-02-24T12:13:45;12.17;;;7.13;;
12218;SDS011;6172;42.646;23.344;2023-02-24T12:16:18;9.57;;;6.77;;
12218;SDS011;6172;42.646;23.344;2023-02-24T12:18:50;14.70;;;7.57;;
12218;SDS011;6172;42.646;23.344;2023-02-24T12:21:24;11.23;;;7.40;;
12218;SDS011;6172;42.646;23.344;2023-02-24T12:23:57;11.43;;;6.60;;
12218;SDS011;6172;42.646;23.344;2023-02-24T12:26:32;11.13;;;7.33;;
12218;SDS011;6172;42.646;23.344;2023-02-24T12:29:20;14.80;;;7.43;;
12218;SDS011;6172;42.646;23.344;2023-02-24T12:32:08;11.60;;;6.87;;
12218;SDS011;6172;42.646;23.344;2023-02-24T12:34:48;13.43;;;8.00;;
12218;SDS011;6172;42.646;23.344;2023-02-24T12:37:41;12.97;;;6.87;;
12218;SDS011;6172;42.646;23.344;2023-02-24T12:40:20;9.67;;;6.10;;
12218;SDS011;6172;42.646;23.344;2023-02-24T12:42:58;9.30;;;6.40;;
12218;SDS011;6172;42.646;23.344;2023-02-24T12:45:37;12.63;;;7.37;;
12218;SDS011;6172;42.646;23.344;2023-02-24T12:48:17;16.50;;;7.73;;
12218;SDS011;6172;42.646;23.344;2023-02-24T12:50:55;33.53;;;8.40;;
12218;SDS011;6172;42.646;23.344;2023-02-24T12:53:30;14.73;;;7.87;;
12218;SDS011;6172;42.646;23.344;2023-02-24T12:56:05;14.90;;;7.13;;
12218;SDS011;6172;42.646;23.344;2023-02-24T12:58:41;19.80;;;7.77;;
12218;SDS011;6172;42.646;23.344;2023-02-24T13:01:14;17.37;;;8.30;;
12218;SDS011;6172;42.646;23.344;2023-02-24T13:03:53;12.90;;;7.50;;
12218;SDS011;6172;42.646;23.344;2023-02-24T13:06:35;19.70;;;8.43;;
12218;SDS011;6172;42.646;23.344;2023-02-24T13:09:10;13.63;;;8.27;;
12218;SDS011;6172;42.646;23.344;2023-02-24T13:11:47;13.47;;;8.07;;
12218;SDS011;6172;42.646;23.344;2023-02-24T13:14:22;15.33;;;8.53;;
12218;SDS011;6172;42.646;23.344;2023-02-24T13:17:15;17.63;;;9.43;;
12218;SDS011;6172;42.646;23.344;2023-02-24T13:19:47;15.30;;;8.40;;
12218;SDS011;6172;42.646;23.344;2023-02-24T13:22:20;15.87;;;7.73;;
12218;SDS011;6172;42.646;23.344;2023-02-24T13:24:56;11.23;;;7.90;;
12218;SDS011;6172;42.646;23.344;2023-02-24T13:27:39;14.00;;;8.57;;
12218;SDS011;6172;42.646;23.344;2023-02-24T13:33:00;12.60;;;8.43;;
12218;SDS011;6172;42.646;23.344;2023-02-24T13:35:31;14.17;;;8.00;;
12218;SDS011;6172;42.646;23.344;2023-02-24T13:38:07;15.07;;;8.37;;
12218;SDS011;6172;42.646;23.344;2023-02-24T13:40:49;15.80;;;8.40;;
12218;SDS011;6172;42.646;23.344;2023-02-24T13:43:21;14.27;;;7.50;;
12218;SDS011;6172;42.646;23.344;2023-02-24T13:45:56;20.03;;;7.90;;
12218;SDS011;6172;42.646;23.344;2023-02-24T13:48:33;20.67;;;7.90;;
12218;SDS011;6172;42.646;23.344;2023-02-24T13:51:12;13.80;;;7.90;;
12218;SDS011;6172;42.646;23.344;2023-02-24T13:53:57;12.97;;;7.30;;
12218;SDS011;6172;42.646;23.344;2023-02-24T13:56:36;13.93;;;7.87;;
12218;SDS011;6172;42.646;23.344;2023-02-24T13:59:13;14.17;;;8.73;;
12218;SDS011;6172;42.646;23.344;2023-02-24T14:01:55;19.57;;;8.43;;
12218;SDS011;6172;42.646;23.344;2023-02-24T14:04:24;20.23;;;9.70;;
12218;SDS011;6172;42.646;23.344;2023-02-24T14:06:53;22.37;;;10.53;;
12218;SDS011;6172;42.646;23.344;2023-02-24T14:09:25;18.47;;;9.60;;
12218;SDS011;6172;42.646;23.344;2023-02-24T14:11:57;17.23;;;9.20;;
12218;SDS011;6172;42.646;23.344;2023-02-24T14:14:26;16.53;;;9.83;;
12218;SDS011;6172;42.646;23.344;2023-02-24T14:16:56;22.77;;;11.37;;
12218;SDS011;6172;42.646;23.344;2023-02-24T14:19:23;19.33;;;11.10;;
12218;SDS011;6172;42.646;23.344;2023-02-24T14:21:51;19.43;;;12.37;;
12218;SDS011;6172;42.646;23.344;2023-02-24T14:24:20;22.70;;;11.70;;
12218;SDS011;6172;42.646;23.344;2023-02-24T14:26:48;16.87;;;11.40;;
12218;SDS011;6172;42.646;23.344;2023-02-24T14:29:17;20.70;;;11.13;;
12218;SDS011;6172;42.646;23.344;2023-02-24T14:31:46;22.63;;;12.47;;
12218;SDS011;6172;42.646;23.344;2023-02-24T14:34:17;24.23;;;13.33;;
12218;SDS011;6172;42.646;23.344;2023-02-24T14:36:46;25.83;;;13.77;;
12218;SDS011;6172;42.646;23.344;2023-02-24T14:39:17;20.30;;;12.83;;
12218;SDS011;6172;42.646;23.344;2023-02-24T14:41:46;21.40;;;13.50;;
12218;SDS011;6172;42.646;23.344;2023-02-24T14:44:18;24.20;;;14.20;;
12218;SDS011;6172;42.646;23.344;2023-02-24T14:46:47;21.83;;;13.00;;
12218;SDS011;6172;42.646;23.344;2023-02-24T14:49:19;24.87;;;14.73;;
12218;SDS011;6172;42.646;23.344;2023-02-24T14:51:48;27.87;;;17.33;;
12218;SDS011;6172;42.646;23.344;2023-02-24T14:54:21;22.80;;;14.63;;
12218;SDS011;6172;42.646;23.344;2023-02-24T14:56:56;35.13;;;16.27;;
12218;SDS011;6172;42.646;23.344;2023-02-24T14:59:27;31.87;;;15.53;;
12218;SDS011;6172;42.646;23.344;2023-02-24T15:01:58;26.80;;;16.27;;
12218;SDS011;6172;42.646;23.344;2023-02-24T15:04:33;29.03;;;16.60;;
12218;SDS011;6172;42.646;23.344;2023-02-24T15:07:04;28.07;;;17.13;;
12218;SDS011;6172;42.646;23.344;2023-02-24T15:09:34;29.10;;;17.30;;
12218;SDS011;6172;42.646;23.344;2023-02-24T15:12:07;31.40;;;16.43;;
12218;SDS011;6172;42.646;23.344;2023-02-24T15:14:36;23.30;;;16.23;;
12218;SDS011;6172;42.646;23.344;2023-02-24T15:17:07;31.23;;;17.57;;
12218;SDS011;6172;42.646;23.344;2023-02-24T15:19:39;26.67;;;17.27;;
12218;SDS011;6172;42.646;23.344;2023-02-24T15:22:20;27.77;;;17.97;;
12218;SDS011;6172;42.646;23.344;2023-02-24T15:24:50;29.27;;;16.83;;
12218;SDS011;6172;42.646;23.344;2023-02-24T15:27:21;27.50;;;15.43;;
12218;SDS011;6172;42.646;23.344;2023-02-24T15:30:01;26.83;;;15.57;;
12218;SDS011;6172;42.646;23.344;2023-02-24T15:32:31;21.90;;;14.77;;